Weather at Skiathos Island National Airport

Public forecast

Using degrees Celsius for public forecast. Weather courtesy of forecast.io.

Current aviation weather report (METAR) for Skiathos Island National Airport

Report is more than 6 hours old.

Retrieved 2021/04/12 08:50 UTC (13 hours ago):

LGSK 120850Z 19005KT CAVOK 16/10 Q1023

Aviation forecast (TAF) for Skiathos Island National Airport

Forecast is more than 12 hours old.

Retrieved 2012/09/27 00:18 UTC (9 years ago):

TAF LGSK 272300Z 2800/2909 01010KT 9999 FEW020